Time;durP1;ratioP1;P1;durP2;ratioP2;P2;SDS_P1;SDS_P2;PMS_P1;PMS_P2;Temp;Humidity;BMP_temperature;BMP_pressure;BME280_temperature;BME280_humidity;BME280_pressure;Samples;Min_cycle;Max_cycle;Signal;HPM_P1;HPM_P2
2023/12/11 00:01:35;;;;;;;7.03;4.77;;;;;;;5.42;100.00;63493.75;5050515;28;20267;-53
2023/12/11 00:04:01;;;;;;;7.70;4.60;;;;;;;5.48;100.00;63500.84;5051075;28;20204;-54
2023/12/11 00:06:26;;;;;;;8.87;6.10;;;;;;;5.69;100.00;63523.16;5032713;28;20201;-54
2023/12/11 00:08:52;;;;;;;14.13;6.80;;;;;;;5.56;100.00;63512.06;5050390;28;20244;-54
2023/12/11 00:11:17;;;;;;;19.63;8.70;;;;;;;5.62;100.00;63518.59;5050743;28;20627;-54
2023/12/11 00:13:44;;;;;;;18.53;10.63;;;;;;;5.47;100.00;63496.72;5050569;28;20659;-54
2023/12/11 00:16:09;;;;;;;15.77;9.40;;;;;;;5.35;100.00;63488.66;5050716;28;20219;-54
2023/12/11 00:18:35;;;;;;;17.93;9.77;;;;;;;5.13;100.00;63462.19;5050968;28;20209;-53
2023/12/11 00:21:01;;;;;;;11.80;7.17;;;;;;;5.00;100.00;63449.16;5050603;28;20208;-54
2023/12/11 00:23:26;;;;;;;17.13;8.90;;;;;;;5.14;100.00;63461.34;5050272;28;20220;-56
2023/12/11 00:25:52;;;;;;;8.83;5.90;;;;;;;5.19;100.00;63468.72;5050593;28;20185;-54
2023/12/11 00:28:18;;;;;;;11.13;6.97;;;;;;;5.35;100.00;63486.16;5050401;28;20347;-54
2023/12/11 00:30:43;;;;;;;11.73;7.03;;;;;;;5.43;100.00;63495.41;5050644;28;20193;-56
2023/12/11 00:33:09;;;;;;;7.67;5.07;;;;;;;5.47;100.00;63499.22;5050802;28;20220;-54
2023/12/11 00:35:34;;;;;;;9.33;5.67;;;;;;;5.40;100.00;63494.63;5050611;28;20219;-55
2023/12/11 00:38:00;;;;;;;6.97;4.80;;;;;;;5.59;100.00;63514.78;5050624;28;20217;-54
2023/12/11 00:40:26;;;;;;;6.40;4.33;;;;;;;5.62;100.00;63515.53;5050612;28;20208;-53
2023/12/11 00:42:51;;;;;;;6.93;4.40;;;;;;;5.51;100.00;63506.63;5032388;28;20219;-53
2023/12/11 00:45:17;;;;;;;6.63;4.33;;;;;;;5.60;100.00;63513.91;5051350;28;20197;-55
2023/12/11 00:47:42;;;;;;;9.53;5.23;;;;;;;5.34;100.00;63488.09;5054141;28;20676;-59
2023/12/11 00:50:08;;;;;;;8.67;5.00;;;;;;;5.52;100.00;63505.19;5053826;28;20204;-55
2023/12/11 00:52:33;;;;;;;6.20;4.43;;;;;;;5.62;100.00;63516.09;5053510;28;20213;-54
2023/12/11 00:54:59;;;;;;;9.07;5.20;;;;;;;5.69;100.00;63523.16;5053488;28;20720;-54
2023/12/11 00:57:25;;;;;;;9.13;5.80;;;;;;;5.80;100.00;63535.13;5035937;28;20205;-54
2023/12/11 00:59:51;;;;;;;7.43;4.47;;;;;;;5.71;100.00;63523.41;5053574;28;20607;-56
2023/12/11 01:02:17;;;;;;;6.87;4.40;;;;;;;5.80;100.00;63535.13;5053658;28;20294;-56
2023/12/11 01:04:43;;;;;;;7.67;4.80;;;;;;;5.74;100.00;63531.09;5053453;28;20273;-53
2023/12/11 01:07:09;;;;;;;16.83;8.77;;;;;;;5.88;100.00;63546.38;5035551;28;20205;-53
2023/12/11 01:09:34;;;;;;;21.20;13.00;;;;;;;5.83;100.00;63541.50;5053418;28;20202;-59
2023/12/11 01:12:00;;;;;;;23.27;13.53;;;;;;;6.02;100.00;63558.59;5053216;28;20236;-54
2023/12/11 01:14:25;;;;;;;26.50;14.83;;;;;;;5.98;100.00;63554.25;5053193;28;20233;-53
2023/12/11 01:16:51;;;;;;;24.60;14.33;;;;;;;5.89;100.00;63544.97;5053367;28;20213;-55
2023/12/11 01:19:24;;;;;;;27.70;15.80;;;;;;;5.76;100.00;63533.84;5053195;28;20205;-55
2023/12/11 01:21:49;;;;;;;29.37;15.77;;;;;;;5.62;100.00;63518.03;5053233;28;20232;-54
2023/12/11 01:24:15;;;;;;;26.00;14.63;;;;;;;5.30;100.00;63480.69;5053667;28;20204;-53
2023/12/11 01:26:41;;;;;;;31.00;16.40;;;;;;;5.30;100.00;63483.19;5035500;28;20205;-54
2023/12/11 01:29:06;;;;;;;26.77;15.53;;;;;;;5.56;100.00;63509.00;5053045;28;20228;-53
2023/12/11 01:31:32;;;;;;;26.00;15.17;;;;;;;5.67;100.00;63519.03;5053118;28;20748;-55
2023/12/11 01:33:57;;;;;;;26.23;14.90;;;;;;;5.64;100.00;63518.25;5053128;28;20594;-55
2023/12/11 01:36:23;;;;;;;27.10;14.97;;;;;;;5.41;100.00;63493.22;5035070;28;20219;-53
2023/12/11 01:38:50;;;;;;;26.40;14.13;;;;;;;5.33;100.00;63483.97;5053040;28;20291;-53
2023/12/11 01:41:16;;;;;;;24.37;13.93;;;;;;;5.35;100.00;63484.19;5035247;28;20256;-52
2023/12/11 01:43:51;;;;;;;30.83;15.23;;;;;;;5.29;100.00;63479.63;5052748;28;20342;-53
2023/12/11 01:46:18;;;;;;;25.37;13.80;;;;;;;5.26;100.00;63478.84;5052957;28;20587;-54
2023/12/11 01:48:45;;;;;;;23.93;13.50;;;;;;;5.23;100.00;63471.13;5053240;28;20232;-53
2023/12/11 01:51:12;;;;;;;24.63;12.93;;;;;;;5.49;100.00;63503.88;5052726;28;20216;-54
2023/12/11 01:53:38;;;;;;;21.87;12.57;;;;;;;5.50;100.00;63504.97;5052582;28;20211;-55
2023/12/11 01:56:05;;;;;;;22.60;13.43;;;;;;;5.42;100.00;63496.81;5052462;28;20354;-53
2023/12/11 01:58:30;;;;;;;31.07;15.27;;;;;;;5.41;100.00;63495.19;5052019;28;20213;-54
2023/12/11 02:00:56;;;;;;;30.30;15.37;;;;;;;5.40;100.00;63492.13;5052610;28;20313;-54
2023/12/11 02:03:22;;;;;;;30.07;16.70;;;;;;;5.71;100.00;63525.91;5052931;28;20582;-54
2023/12/11 02:05:49;;;;;;;34.77;16.00;;;;;;;5.51;100.00;63506.63;5052290;28;20201;-58
2023/12/11 02:08:15;;;;;;;29.43;15.63;;;;;;;5.47;100.00;63499.75;5052564;28;20679;-55
2023/12/11 02:10:41;;;;;;;31.10;15.43;;;;;;;5.42;100.00;63496.81;5052732;28;20223;-55
2023/12/11 02:13:07;;;;;;;26.83;15.20;;;;;;;5.49;100.00;63503.88;5052247;28;20213;-55
2023/12/11 02:15:43;;;;;;;31.90;15.23;;;;;;;5.20;100.00;63469.81;5052369;28;20204;-53
2023/12/11 02:18:10;;;;;;;25.37;15.03;;;;;;;5.05;100.00;63454.56;5052151;28;20670;-56
2023/12/11 02:20:37;;;;;;;31.80;14.50;;;;;;;5.03;100.00;63451.84;5052033;28;20720;-56
2023/12/11 02:23:08;;;;;;;25.57;14.57;;;;;;;5.16;100.00;63462.97;5052122;28;20224;-56
2023/12/11 02:25:35;;;;;;;24.37;13.00;;;;;;;5.06;100.00;63458.16;5052358;28;20628;-53
2023/12/11 02:28:03;;;;;;;25.67;15.17;;;;;;;5.06;100.00;63457.63;5051930;28;20217;-52
2023/12/11 02:30:48;;;;;;;24.07;14.83;;;;;;;5.13;100.00;63462.19;5052021;28;20211;-53
2023/12/11 02:33:14;;;;;;;26.70;15.10;;;;;;;5.04;100.00;63453.50;5051915;28;20220;-53
2023/12/11 02:35:41;;;;;;;28.43;13.83;;;;;;;5.10;100.00;63461.97;5052419;28;20197;-53
2023/12/11 02:38:07;;;;;;;28.00;14.43;;;;;;;5.15;100.00;63464.94;5073124;22;20717;-52
2023/12/11 02:40:33;;;;;;;26.60;15.17;;;;;;;5.08;100.00;63459.78;5070554;28;20211;-53
2023/12/11 02:42:58;;;;;;;24.63;14.40;;;;;;;5.04;100.00;63458.50;5057767;28;20209;-53
2023/12/11 02:45:24;;;;;;;23.97;14.13;;;;;;;5.05;100.00;63454.56;5034121;28;20237;-53
2023/12/11 02:47:49;;;;;;;25.67;14.27;;;;;;;5.05;100.00;63454.56;5067927;22;20236;-52
2023/12/11 02:50:15;;;;;;;29.00;15.07;;;;;;;5.10;100.00;63462.53;5071811;28;20575;-53
2023/12/11 02:52:41;;;;;;;25.87;14.03;;;;;;;5.05;100.00;63452.06;5060002;28;20221;-54
2023/12/11 02:55:07;;;;;;;21.20;12.27;;;;;;;5.13;100.00;63462.72;5052092;28;20207;-54
2023/12/11 02:57:32;;;;;;;23.23;13.00;;;;;;;4.89;100.00;63439.66;5051196;28;20221;-52
2023/12/11 02:59:58;;;;;;;20.47;11.07;;;;;;;4.65;100.00;63413.56;5051634;28;20267;-52
2023/12/11 03:02:23;;;;;;;20.93;11.47;;;;;;;4.63;100.00;63411.38;5051374;28;20271;-54
2023/12/11 03:04:49;;;;;;;17.40;9.47;;;;;;;4.54;100.00;63399.09;5051541;28;20189;-54
2023/12/11 03:07:15;;;;;;;15.87;9.53;;;;;;;4.39;100.00;63382.78;5051384;28;20210;-52
2023/12/11 03:09:40;;;;;;;17.57;10.33;;;;;;;4.33;100.00;63378.75;5051120;28;20527;-53
2023/12/11 03:12:06;;;;;;;19.53;11.27;;;;;;;4.59;100.00;63407.03;5050403;28;20209;-53
2023/12/11 03:14:32;;;;;;;21.93;12.20;;;;;;;4.43;100.00;63386.56;5051578;28;20201;-53
2023/12/11 03:16:57;;;;;;;18.13;10.53;;;;;;;4.55;100.00;63402.66;5051318;28;20575;-53
2023/12/11 03:19:24;;;;;;;20.80;11.80;;;;;;;4.45;100.00;63389.31;5051347;28;20217;-58
2023/12/11 03:21:50;;;;;;;22.97;13.00;;;;;;;4.11;100.00;63352.34;5051110;28;20714;-55
2023/12/11 03:24:15;;;;;;;21.43;12.50;;;;;;;4.16;100.00;63360.28;5051206;28;20215;-55
2023/12/11 03:26:41;;;;;;;21.27;12.37;;;;;;;4.23;100.00;63365.38;5051513;28;20216;-54
2023/12/11 03:29:06;;;;;;;19.10;11.77;;;;;;;4.34;100.00;63377.34;5051391;28;20223;-54
2023/12/11 03:31:32;;;;;;;21.27;11.80;;;;;;;4.40;100.00;63383.31;5051075;28;20224;-55
2023/12/11 03:33:58;;;;;;;21.00;11.53;;;;;;;4.39;100.00;63385.28;5049724;28;20217;-54
2023/12/11 03:36:23;;;;;;;19.97;11.97;;;;;;;4.32;100.00;63375.19;5051644;28;20204;-55
2023/12/11 03:38:49;;;;;;;17.90;11.70;;;;;;;4.17;100.00;63361.34;5051582;28;20817;-54
2023/12/11 03:41:14;;;;;;;21.43;10.50;;;;;;;4.07;100.00;63351.03;5050923;28;20204;-56
2023/12/11 03:43:40;;;;;;;17.80;10.17;;;;;;;4.07;100.00;63350.47;5051367;28;20220;-55
2023/12/11 03:46:05;;;;;;;19.67;10.27;;;;;;;4.12;100.00;63353.97;5050850;28;20736;-55
2023/12/11 03:48:31;;;;;;;17.00;9.33;;;;;;;4.04;100.00;63345.25;5051329;28;20303;-55
2023/12/11 03:50:56;;;;;;;16.13;9.07;;;;;;;4.23;100.00;63365.38;5051223;28;20262;-56
2023/12/11 03:53:22;;;;;;;17.97;9.00;;;;;;;4.17;100.00;63361.34;5050885;28;20259;-55
2023/12/11 03:55:48;;;;;;;14.60;8.30;;;;;;;4.11;100.00;63352.34;5033345;28;20719;-55
2023/12/11 03:58:13;;;;;;;15.13;7.83;;;;;;;4.19;100.00;63363.53;5050868;28;20215;-53
2023/12/11 04:00:39;;;;;;;13.27;8.00;;;;;;;4.32;100.00;63372.69;5050652;28;20363;-54
2023/12/11 04:03:05;;;;;;;14.20;8.37;;;;;;;4.35;100.00;63380.91;5050957;28;20218;-53
2023/12/11 04:05:30;;;;;;;13.60;9.43;;;;;;;4.48;100.00;63395.06;5051151;28;20197;-53
2023/12/11 04:07:56;;;;;;;12.27;7.33;;;;;;;4.36;100.00;63382.03;5051080;28;20247;-53
2023/12/11 04:10:21;;;;;;;9.83;7.00;;;;;;;4.24;100.00;63368.97;5032566;28;20508;-54
2023/12/11 04:12:47;;;;;;;10.87;6.87;;;;;;;4.31;100.00;63373.53;5050732;28;20220;-53
2023/12/11 04:15:13;;;;;;;11.50;7.60;;;;;;;4.34;100.00;63379.84;5032735;28;20671;-54
2023/12/11 04:17:41;;;;;;;9.67;6.03;;;;;;;4.62;100.00;63409.75;5032666;28;20239;-54
2023/12/11 04:20:07;;;;;;;9.17;6.20;;;;;;;4.46;100.00;63392.34;5051203;28;20701;-54
2023/12/11 04:22:32;;;;;;;8.30;5.33;;;;;;;4.46;100.00;63387.34;5036039;28;20728;-54
2023/12/11 04:24:58;;;;;;;12.73;5.73;;;;;;;4.77;100.00;63426.59;5053992;28;20208;-54
2023/12/11 04:27:24;;;;;;;10.70;6.57;;;;;;;4.64;100.00;63409.44;5036244;28;20213;-55
2023/12/11 04:29:49;;;;;;;13.13;7.43;;;;;;;4.70;100.00;63416.50;5054348;28;20205;-56
2023/12/11 04:32:15;;;;;;;9.67;6.70;;;;;;;4.83;100.00;63430.09;5054161;28;20289;-55
2023/12/11 04:34:40;;;;;;;15.37;9.67;;;;;;;4.50;100.00;63394.19;5053834;28;20198;-55
2023/12/11 04:37:06;;;;;;;12.77;6.60;;;;;;;4.58;100.00;63403.44;5053732;28;20303;-55
2023/12/11 04:39:31;;;;;;;11.77;6.63;;;;;;;4.48;100.00;63392.03;5053866;28;20346;-52
2023/12/11 04:41:57;;;;;;;12.57;7.10;;;;;;;4.58;100.00;63405.41;5054223;28;20287;-54
2023/12/11 04:44:22;;;;;;;9.47;6.10;;;;;;;4.63;100.00;63408.88;5054231;28;20656;-53
2023/12/11 04:46:48;;;;;;;9.27;6.20;;;;;;;4.57;100.00;63404.84;5053596;28;20209;-55
2023/12/11 04:49:13;;;;;;;6.57;4.87;;;;;;;4.71;100.00;63417.59;5053936;28;20217;-53
2023/12/11 04:51:39;;;;;;;7.43;5.00;;;;;;;4.84;100.00;63431.75;5035867;28;20208;-54
2023/12/11 04:54:04;;;;;;;7.90;4.60;;;;;;;4.85;100.00;63435.31;5053665;28;20631;-53
2023/12/11 04:56:30;;;;;;;6.77;4.87;;;;;;;4.96;100.00;63444.25;5053857;28;20245;-52
2023/12/11 04:58:55;;;;;;;7.07;4.60;;;;;;;5.13;100.00;63463.28;5053693;28;20584;-54
2023/12/11 05:01:21;;;;;;;11.20;4.93;;;;;;;5.09;100.00;63458.38;5035666;28;20236;-52
2023/12/11 05:03:47;;;;;;;5.90;4.20;;;;;;;5.05;100.00;63454.56;5053396;28;20667;-53
2023/12/11 05:06:12;;;;;;;6.00;4.40;;;;;;;4.92;100.00;63442.38;5053384;28;20215;-54
2023/12/11 05:08:38;;;;;;;6.67;4.37;;;;;;;4.70;100.00;63418.44;5053024;28;20319;-56
2023/12/11 05:11:04;;;;;;;6.83;4.57;;;;;;;4.89;100.00;63439.66;5053444;28;20193;-56
2023/12/11 05:13:29;;;;;;;7.07;4.57;;;;;;;5.06;100.00;63458.16;5035313;28;20316;-54
2023/12/11 05:15:55;;;;;;;9.63;4.70;;;;;;;4.83;100.00;63430.63;5053164;28;20268;-55
2023/12/11 05:18:21;;;;;;;6.87;4.83;;;;;;;4.71;100.00;63417.59;5053396;28;20216;-55
2023/12/11 05:20:46;;;;;;;8.80;5.03;;;;;;;4.78;100.00;63425.22;5053221;28;20580;-55
2023/12/11 05:23:12;;;;;;;8.33;4.50;;;;;;;4.96;100.00;63447.28;5053371;28;20630;-56
2023/12/11 05:25:37;;;;;;;6.23;4.50;;;;;;;5.27;100.00;63480.50;5053370;28;20208;-56
2023/12/11 05:28:03;;;;;;;6.97;4.33;;;;;;;5.28;100.00;63478.53;5035205;28;20232;-55
2023/12/11 05:30:29;;;;;;;6.27;3.87;;;;;;;5.39;100.00;63493.00;5053366;28;20279;-54
2023/12/11 05:32:54;;;;;;;6.00;4.43;;;;;;;5.43;100.00;63495.41;5052219;28;20212;-53
2023/12/11 05:35:20;;;;;;;7.10;4.20;;;;;;;5.30;100.00;63480.69;5052927;28;20197;-53
2023/12/11 05:37:46;;;;;;;5.97;4.03;;;;;;;5.18;100.00;63470.13;5053490;28;20209;-55
2023/12/11 05:40:11;;;;;;;9.97;4.97;;;;;;;5.05;100.00;63454.56;5035215;28;20196;-53
2023/12/11 05:42:43;;;;;;;6.17;4.13;;;;;;;5.25;100.00;63475.81;5053014;28;20720;-54
2023/12/11 05:45:09;;;;;;;7.23;4.50;;;;;;;5.32;100.00;63482.88;5036180;28;20174;-53
2023/12/11 05:47:35;;;;;;;8.60;4.77;;;;;;;5.29;100.00;63485.16;5052769;28;20599;-54
2023/12/11 05:50:01;;;;;;;7.37;4.90;;;;;;;5.21;100.00;63468.41;5052613;28;20700;-54
2023/12/11 05:52:27;;;;;;;7.40;3.97;;;;;;;5.36;100.00;63487.78;5052421;28;20610;-54
2023/12/11 05:54:53;;;;;;;6.90;4.60;;;;;;;5.32;100.00;63483.44;5052667;28;20205;-53
2023/12/11 05:57:18;;;;;;;8.90;4.50;;;;;;;5.59;100.00;63514.78;5052607;28;20212;-53
2023/12/11 05:59:44;;;;;;;7.47;5.20;;;;;;;5.50;100.00;63503.03;5034917;28;20204;-52
2023/12/11 06:02:11;;;;;;;10.73;4.87;;;;;;;5.58;100.00;63511.72;5052424;28;20308;-53
2023/12/11 06:04:36;;;;;;;7.50;4.70;;;;;;;5.55;100.00;63510.97;5052523;28;20259;-53
2023/12/11 06:07:02;;;;;;;9.10;5.27;;;;;;;5.57;100.00;63513.16;5034348;28;20224;-54
2023/12/11 06:09:28;;;;;;;8.00;5.13;;;;;;;5.71;100.00;63525.34;5034732;28;20255;-55
2023/12/11 06:11:53;;;;;;;9.03;4.90;;;;;;;5.64;100.00;63520.22;5052363;28;20593;-57
2023/12/11 06:14:19;;;;;;;6.70;5.10;;;;;;;5.64;100.00;63517.72;5017857;28;20685;-55
2023/12/11 06:16:45;;;;;;;11.03;6.63;;;;;;;5.68;100.00;63525.13;5050779;28;20222;-55
2023/12/11 06:19:10;;;;;;;13.80;5.90;;;;;;;5.77;100.00;63534.94;5052241;28;20699;-55
2023/12/11 06:21:36;;;;;;;9.30;5.97;;;;;;;5.88;100.00;63544.41;5052516;28;20204;-53
2023/12/11 06:24:02;;;;;;;10.97;6.97;;;;;;;5.93;100.00;63552.38;5034617;28;20570;-53
2023/12/11 06:26:31;;;;;;;11.63;5.57;;;;;;;5.79;100.00;63536.56;5052294;28;20228;-54
2023/12/11 06:28:59;;;;;;;10.77;5.77;;;;;;;5.82;100.00;63537.88;5052168;28;20312;-52
2023/12/11 06:31:25;;;;;;;7.80;5.80;;;;;;;6.01;100.00;63560.53;5052460;28;20208;-53
2023/12/11 06:33:51;;;;;;;10.83;5.63;;;;;;;5.97;100.00;63553.13;5052025;28;20292;-54
2023/12/11 06:36:16;;;;;;;8.90;6.10;;;;;;;6.03;100.00;63562.19;5051997;28;20225;-53
2023/12/11 06:38:42;;;;;;;9.70;6.30;;;;;;;6.13;100.00;63571.13;5052029;28;20237;-54
2023/12/11 06:41:08;;;;;;;10.03;6.13;;;;;;;6.19;100.00;63579.59;5051972;28;20195;-53
2023/12/11 06:43:35;;;;;;;8.17;5.87;;;;;;;6.13;100.00;63573.63;5033601;28;20221;-58
2023/12/11 06:46:02;;;;;;;10.23;4.73;;;;;;;6.19;100.00;63575.16;5051741;28;20245;-54
2023/12/11 06:48:29;;;;;;;12.40;5.50;;;;;;;6.15;100.00;63572.75;5052405;28;20252;-53
2023/12/11 06:50:55;;;;;;;15.83;5.87;;;;;;;5.97;100.00;63553.69;5052162;28;20292;-54
2023/12/11 06:53:20;;;;;;;7.03;4.37;;;;;;;5.88;100.00;63546.38;5033946;28;20767;-53
2023/12/11 06:55:46;;;;;;;8.47;4.60;;;;;;;5.97;100.00;63551.19;5051534;28;20698;-55
2023/12/11 06:58:11;;;;;;;7.97;5.03;;;;;;;5.78;100.00;63532.97;5052192;28;20213;-55
2023/12/11 07:00:37;;;;;;;8.60;5.00;;;;;;;5.72;100.00;63526.44;5052058;28;20236;-55
2023/12/11 07:03:03;;;;;;;6.80;4.43;;;;;;;5.82;100.00;63540.38;5051694;28;20696;-53
2023/12/11 07:05:28;;;;;;;7.77;4.90;;;;;;;5.75;100.00;63532.19;5051571;28;20209;-55
2023/12/11 07:07:55;;;;;;;6.97;4.50;;;;;;;5.97;100.00;63550.63;5051764;28;20725;-54
2023/12/11 07:10:20;;;;;;;7.90;4.73;;;;;;;5.87;100.00;63545.84;5051377;28;20209;-55
2023/12/11 07:12:47;;;;;;;5.63;4.17;;;;;;;6.07;100.00;63564.59;5051389;28;20216;-54
2023/12/11 07:15:13;;;;;;;7.77;4.63;;;;;;;5.99;100.00;63558.38;5033246;28;20572;-53
2023/12/11 07:17:38;;;;;;;9.23;5.13;;;;;;;5.98;100.00;63557.25;5051527;28;20225;-55
2023/12/11 07:20:06;;;;;;;10.07;4.53;;;;;;;6.00;100.00;63559.44;5051191;28;20292;-54
2023/12/11 07:22:34;;;;;;;16.60;5.50;;;;;;;5.97;100.00;63555.63;5051104;28;20298;-55
2023/12/11 07:25:00;;;;;;;10.97;5.30;;;;;;;5.99;100.00;63557.81;5051543;28;20649;-54
2023/12/11 07:27:26;;;;;;;9.87;5.83;;;;;;;6.24;100.00;63583.09;5050947;28;20221;-55
2023/12/11 07:29:51;;;;;;;8.33;5.17;;;;;;;6.37;100.00;63599.78;5050976;28;20646;-56
2023/12/11 07:32:18;;;;;;;9.10;5.77;;;;;;;6.21;100.00;63582.34;5050925;28;20220;-54
2023/12/11 07:34:43;;;;;;;11.23;6.67;;;;;;;6.02;100.00;63561.63;5051725;28;20197;-57
2023/12/11 07:37:09;;;;;;;10.77;6.67;;;;;;;6.17;100.00;63577.97;5051515;28;20206;-54
2023/12/11 07:39:35;;;;;;;13.43;6.20;;;;;;;6.19;100.00;63577.09;5051011;28;20200;-54
2023/12/11 07:42:00;;;;;;;9.00;5.80;;;;;;;6.19;100.00;63575.16;5050835;28;20713;-53
2023/12/11 07:44:26;;;;;;;13.57;5.70;;;;;;;6.38;100.00;63598.34;5050771;28;20188;-54
2023/12/11 07:46:52;;;;;;;12.70;7.37;;;;;;;6.25;100.00;63581.69;5051027;28;20213;-54
2023/12/11 07:49:18;;;;;;;10.17;6.07;;;;;;;6.17;100.00;63575.47;5050832;28;20691;-55
2023/12/11 07:51:44;;;;;;;8.80;5.43;;;;;;;6.40;100.00;63603.03;5050895;28;20209;-54
2023/12/11 07:54:10;;;;;;;9.57;5.67;;;;;;;6.56;100.00;63618.00;5032415;28;20205;-55
2023/12/11 07:56:37;;;;;;;6.50;4.57;;;;;;;6.54;100.00;63618.31;5050605;28;20194;-54
2023/12/11 07:59:02;;;;;;;11.10;5.07;;;;;;;6.57;100.00;63618.50;5033204;28;20262;-56
2023/12/11 08:01:31;;;;;;;10.27;5.50;;;;;;;6.51;100.00;63614.47;5050806;28;20194;-55
2023/12/11 08:04:01;;;;;;;12.00;5.97;;;;;;;6.65;100.00;63627.78;5050549;28;20300;-54
2023/12/11 08:06:27;;;;;;;8.60;5.23;;;;;;;6.77;100.00;63638.38;5051300;28;20276;-55
2023/12/11 08:08:53;;;;;;;9.37;5.87;;;;;;;6.79;100.00;63645.00;5050516;28;20255;-54
2023/12/11 08:11:21;;;;;;;9.73;5.57;;;;;;;6.97;100.00;63661.59;5050436;28;20217;-53
2023/12/11 08:13:46;;;;;;;12.67;5.20;;;;;;;6.87;100.00;63650.69;5050746;28;20217;-54
2023/12/11 08:16:13;;;;;;;15.50;6.50;;;;;;;6.99;100.00;63666.28;5050763;28;20722;-54
2023/12/11 08:18:41;;;;;;;12.13;6.20;;;;;;;6.95;100.00;63661.91;5032684;28;20217;-55
2023/12/11 08:21:06;;;;;;;9.30;3.87;;;;;;;6.82;99.54;63645.78;5032707;28;20197;-54
2023/12/11 08:23:32;;;;;;;7.33;4.03;;;;;;;6.52;99.33;63610.56;5050902;28;20202;-54
2023/12/11 08:25:58;;;;;;;6.57;4.10;;;;;;;6.76;99.94;63641.75;5050514;28;20197;-54
2023/12/11 08:28:23;;;;;;;7.90;4.57;;;;;;;7.00;100.00;63662.91;5032630;28;20217;-53
2023/12/11 08:30:49;;;;;;;12.53;7.47;;;;;;;7.05;100.00;63670.31;5050452;28;20194;-54
2023/12/11 08:33:15;;;;;;;8.93;4.17;;;;;;;6.92;99.66;63656.69;5032695;28;20717;-57
2023/12/11 08:35:40;;;;;;;8.13;5.87;;;;;;;7.01;100.00;63666.50;5050264;28;20205;-56
2023/12/11 08:38:06;;;;;;;7.33;4.60;;;;;;;7.39;100.00;63704.91;5050671;28;20291;-54
2023/12/11 08:40:32;;;;;;;7.67;4.83;;;;;;;7.90;100.00;63762.50;5050923;28;20539;-54
2023/12/11 08:42:58;;;;;;;7.27;4.53;;;;;;;7.68;100.00;63741.53;5050652;28;20205;-52
2023/12/11 08:45:23;;;;;;;7.07;5.00;;;;;;;7.44;100.00;63715.91;5032364;28;20225;-54
2023/12/11 08:47:49;;;;;;;8.93;4.70;;;;;;;7.45;100.00;63713.94;5050438;28;20711;-54
2023/12/11 08:50:16;;;;;;;8.27;4.13;;;;;;;7.46;99.22;63712.53;5050154;28;20205;-54
2023/12/11 08:52:43;;;;;;;8.07;4.60;;;;;;;7.40;99.83;63711.53;5049921;28;20534;-53
2023/12/11 08:55:09;;;;;;;8.60;5.67;;;;;;;7.32;100.00;63702.25;5050053;28;20292;-53
2023/12/11 08:57:35;;;;;;;7.27;4.73;;;;;;;7.40;99.14;63711.53;5050602;28;20205;-55
2023/12/11 09:00:03;;;;;;;5.57;3.93;;;;;;;7.18;98.54;63687.00;5050400;28;20630;-53
2023/12/11 09:02:28;;;;;;;8.77;3.50;;;;;;;7.19;98.80;63688.09;5050289;28;20296;-53
2023/12/11 09:04:54;;;;;;;10.07;4.97;;;;;;;7.39;100.00;63709.91;5050090;28;20640;-54
2023/12/11 09:07:19;;;;;;;6.50;4.00;;;;;;;7.53;96.72;63720.16;5034505;28;20298;-52
2023/12/11 09:09:45;;;;;;;9.97;5.03;;;;;;;7.52;97.13;63722.13;5053809;28;20209;-53
2023/12/11 09:12:11;;;;;;;9.90;4.30;;;;;;;7.48;96.56;63717.75;5053326;28;20713;-53
2023/12/11 09:14:36;;;;;;;8.50;4.33;;;;;;;7.64;96.30;63735.22;5053287;28;20233;-53
2023/12/11 09:17:02;;;;;;;7.83;4.03;;;;;;;7.89;98.26;63761.97;5053720;28;20292;-54
2023/12/11 09:19:28;;;;;;;8.80;4.70;;;;;;;8.07;94.40;63781.63;5053377;28;20671;-54
2023/12/11 09:21:54;;;;;;;7.43;5.03;;;;;;;8.11;94.45;63785.97;5035346;28;20209;-57
2023/12/11 09:24:20;;;;;;;6.67;4.00;;;;;;;8.05;89.03;63778.88;5053287;28;20564;-53
2023/12/11 09:26:45;;;;;;;6.10;3.67;;;;;;;8.00;89.98;63771.47;5053044;28;20587;-53
2023/12/11 09:29:11;;;;;;;5.47;3.47;;;;;;;8.03;89.57;63776.69;5052939;28;20224;-53
2023/12/11 09:31:37;;;;;;;4.40;3.30;;;;;;;8.12;90.77;63787.06;5053439;28;20237;-55
2023/12/11 09:34:04;;;;;;;5.70;3.70;;;;;;;8.29;89.80;63805.09;5035300;28;20206;-54
2023/12/11 09:36:29;;;;;;;7.23;4.00;;;;;;;8.58;86.34;63838.75;5035350;28;20205;-57
2023/12/11 09:38:55;;;;;;;7.30;4.30;;;;;;;8.66;87.55;63844.97;5052956;28;20217;-54
2023/12/11 09:41:21;;;;;;;5.07;3.83;;;;;;;8.69;86.91;63845.72;5052700;28;20575;-53
2023/12/11 09:43:48;;;;;;;7.43;4.30;;;;;;;8.64;86.34;63842.78;5035186;28;20728;-52
2023/12/11 09:46:16;;;;;;;5.70;3.47;;;;;;;9.29;100.00;63913.81;5052907;28;20197;-53
2023/12/11 09:48:42;;;;;;;6.20;4.13;;;;;;;9.46;85.31;63934.38;5053189;28;20296;-52
2023/12/11 09:51:08;;;;;;;5.20;3.67;;;;;;;9.47;81.59;63933.50;5052773;28;20197;-58
2023/12/11 09:53:36;;;;;;;7.40;3.83;;;;;;;9.43;78.45;63928.59;5052638;28;20224;-52
2023/12/11 09:56:03;;;;;;;4.03;3.10;;;;;;;9.14;79.76;63899.94;5052688;28;20202;-53
2023/12/11 09:58:29;;;;;;;5.17;3.27;;;;;;;9.15;80.48;63896.00;5034959;28;20288;-52
2023/12/11 10:01:00;;;;;;;4.77;3.20;;;;;;;9.36;80.39;63921.47;5053082;28;20727;-54
2023/12/11 10:03:27;;;;;;;11.33;4.83;;;;;;;9.53;79.72;63940.06;5053308;28;20213;-55
2023/12/11 10:05:59;;;;;;;5.83;3.80;;;;;;;9.50;80.12;63936.78;5052412;28;20288;-52
2023/12/11 10:08:26;;;;;;;5.40;3.10;;;;;;;9.42;75.68;63927.47;5052834;28;20217;-53
2023/12/11 10:11:12;;;;;;;5.00;3.20;;;;;;;9.66;74.15;63953.72;5052656;28;20212;-54
2023/12/11 10:13:38;;;;;;;5.93;2.97;;;;;;;10.74;70.46;64071.38;5052528;28;20323;-53
2023/12/11 10:16:06;;;;;;;5.70;2.97;;;;;;;11.67;67.01;64170.72;5052535;28;20205;-53
2023/12/11 10:18:31;;;;;;;4.83;2.80;;;;;;;12.46;65.01;64256.75;5051828;28;20224;-53
2023/12/11 10:20:58;;;;;;;5.43;3.30;;;;;;;12.61;62.83;64273.22;5052176;28;20209;-53
2023/12/11 10:23:24;;;;;;;5.83;3.50;;;;;;;13.46;71.80;64365.97;5052075;28;20232;-54
2023/12/11 10:25:53;;;;;;;3.30;2.73;;;;;;;13.86;64.07;64409.31;5052823;28;20744;-52
2023/12/11 10:28:22;;;;;;;5.97;3.17;;;;;;;14.38;64.82;64468.47;5052352;28;20213;-54
2023/12/11 10:30:59;;;;;;;4.30;3.20;;;;;;;15.01;67.04;64532.59;5052456;28;20211;-59
2023/12/11 10:33:31;;;;;;;6.07;4.00;;;;;;;15.43;63.68;64580.25;5052664;28;20221;-54
2023/12/11 10:36:12;;;;;;;14.88;4.53;;;;;;;15.75;60.35;64616.00;5052605;28;20198;-54
2023/12/11 10:38:38;;;;;;;6.07;3.90;;;;;;;16.01;58.73;64643.50;5052269;28;20235;-53
2023/12/11 10:41:05;;;;;;;4.72;3.42;;;;;;;16.27;57.40;64674.66;5034067;28;20193;-53
2023/12/11 10:43:43;;;;;;;8.77;4.57;;;;;;;16.36;53.69;64682.56;5050553;28;20781;-52
2023/12/11 10:46:09;;;;;;;7.60;4.30;;;;;;;16.17;51.50;64661.13;5052321;28;20292;-55
2023/12/11 10:48:36;;;;;;;6.90;4.38;;;;;;;16.10;51.72;64653.44;5052122;28;20217;-54
2023/12/11 10:51:05;;;;;;;7.57;4.53;;;;;;;16.30;53.67;64675.44;5051796;28;20330;-53
2023/12/11 10:53:33;;;;;;;8.05;3.60;;;;;;;16.23;53.76;64667.72;5051978;28;20205;-55
2023/12/11 10:56:00;;;;;;;4.30;3.38;;;;;;;16.35;51.15;64680.94;5033841;28;20679;-54
2023/12/11 10:58:27;;;;;;;5.88;3.92;;;;;;;16.50;50.07;64698.00;5051862;28;20224;-54
2023/12/11 11:00:58;;;;;;;4.32;3.35;;;;;;;16.76;53.30;64724.09;5051663;28;20248;-54
2023/12/11 11:03:24;;;;;;;5.13;3.40;;;;;;;16.57;54.52;64705.16;5051412;28;20213;-53
2023/12/11 11:05:52;;;;;;;6.43;3.72;;;;;;;16.45;52.93;64689.94;5051860;28;20263;-53
2023/12/11 11:08:37;;;;;;;6.88;4.10;;;;;;;16.37;48.14;64685.69;5051816;28;20247;-54
2023/12/11 11:11:29;;;;;;;6.05;4.05;;;;;;;16.00;47.54;64642.41;5051345;28;20213;-52
2023/12/11 11:14:13;;;;;;;5.72;3.53;;;;;;;15.27;48.50;64562.66;5042522;28;21665;-54
2023/12/11 11:16:55;;;;;;;7.05;3.90;;;;;;;15.04;49.36;64537.91;5051239;28;20197;-53
2023/12/11 11:19:20;;;;;;;5.47;3.80;;;;;;;14.87;50.62;64519.75;5051160;28;20212;-53
2023/12/11 11:22:09;;;;;;;6.25;3.97;;;;;;;14.97;50.21;64530.75;5051572;28;20674;-54
2023/12/11 11:24:35;;;;;;;9.75;4.10;;;;;;;14.89;50.06;64521.97;5038800;28;20223;-53
2023/12/11 11:27:02;;;;;;;8.55;3.80;;;;;;;14.81;51.51;64515.69;5050941;28;20205;-53